createdAt,value
2019-02-28T00:00:20.645Z,21.7
2019-02-28T00:10:19.848Z,21.7
2019-02-28T00:20:19.050Z,21.7
2019-02-28T00:30:18.252Z,21.6
2019-02-28T00:40:17.458Z,21.6
2019-02-28T00:50:16.657Z,21.8
2019-02-28T01:00:15.927Z,21.9
2019-02-28T01:10:15.063Z,21.8
2019-02-28T01:20:15.997Z,21.7
2019-02-28T01:30:13.529Z,21.6
2019-02-28T01:40:12.670Z,21.6
2019-02-28T01:50:11.865Z,21.9
2019-02-28T02:00:11.074Z,21.8
2019-02-28T02:10:10.270Z,21.7
2019-02-28T02:20:09.472Z,21.6
2019-02-28T02:30:13.257Z,21.5
2019-02-28T02:40:07.881Z,21.6
2019-02-28T02:50:07.077Z,21.8
2019-02-28T03:00:06.288Z,21.7
2019-02-28T03:10:05.481Z,21.6
2019-02-28T03:20:07.314Z,21.9
2019-02-28T03:30:03.898Z,21.8
2019-02-28T03:40:05.103Z,21.9
2019-02-28T03:50:02.297Z,21.8
2019-02-28T04:00:01.495Z,21.7
2019-02-28T04:10:00.697Z,21.7
2019-02-28T04:20:00.500Z,21.9
2019-02-28T04:30:05.693Z,21.7
2019-02-28T04:39:58.301Z,21.6
2019-02-28T04:49:57.705Z,21.5
2019-02-28T04:59:56.751Z,21.4
2019-02-28T05:09:55.905Z,21.8
2019-02-28T05:19:55.212Z,21.9
2019-02-28T05:29:54.313Z,21.8
2019-02-28T05:39:53.516Z,21.6
2019-02-28T05:49:52.721Z,21.6
2019-02-28T05:59:51.929Z,21.7
2019-02-28T06:09:51.136Z,21.6
2019-02-28T06:19:50.344Z,21.6
2019-02-28T06:29:49.594Z,21.5
2019-02-28T06:39:48.747Z,21.5
2019-02-28T06:49:47.952Z,21.5
2019-02-28T06:59:47.204Z,21.5
2019-02-28T07:09:46.359Z,21.5
2019-02-28T07:19:45.563Z,21.5
2019-02-28T07:29:44.769Z,21.8
2019-02-28T07:39:43.974Z,22
2019-02-28T07:49:43.183Z,21.8
2019-02-28T07:59:42.701Z,21.8
2019-02-28T08:09:41.645Z,21.7
2019-02-28T08:19:40.793Z,21.6
2019-02-28T08:29:44.564Z,21.6
2019-02-28T08:39:41.123Z,21.6
2019-02-28T08:49:41.861Z,21.6
2019-02-28T08:59:37.627Z,21.6
2019-02-28T09:09:36.835Z,21.6
2019-02-28T09:19:36.923Z,21.7
2019-02-28T09:29:35.249Z,21.8
2019-02-28T09:39:34.458Z,21.8
2019-02-28T09:49:33.668Z,21.8
2019-02-28T09:59:37.263Z,21.8
2019-02-28T10:09:32.085Z,21.7
2019-02-28T10:19:31.297Z,21.7
2019-02-28T10:29:30.508Z,22.1
2019-02-28T10:39:29.718Z,22.1
2019-02-28T10:49:28.932Z,22
2019-02-28T11:03:53.783Z,21.9
2019-02-28T11:14:43.914Z,21.9
2019-02-28T11:24:43.125Z,21.9
2019-02-28T11:34:42.336Z,21.9
2019-02-28T11:44:43.458Z,21.9
2019-02-28T11:54:40.751Z,21.8
2019-02-28T12:04:40.408Z,21.9
2019-02-28T12:14:39.212Z,21.8
2019-02-28T12:24:38.495Z,21.9
2019-02-28T12:34:37.790Z,21.8
2019-02-28T12:44:37.065Z,21.8
2019-02-28T12:54:36.347Z,21.9
2019-02-28T13:04:36.582Z,21.8
2019-02-28T13:14:36.738Z,21.8
2019-02-28T13:24:34.037Z,21.8
2019-02-28T13:34:33.239Z,21.8
2019-02-28T13:44:36.246Z,21.8
2019-02-28T13:54:31.646Z,21.8
2019-02-28T14:04:30.851Z,21.8
2019-02-28T14:14:30.050Z,21.8
2019-02-28T14:24:30.832Z,21.8
2019-02-28T14:34:28.452Z,21.8
2019-02-28T14:44:27.904Z,21.7
2019-02-28T14:54:26.856Z,21.7
2019-02-28T15:04:26.059Z,21.7
2019-02-28T15:14:25.260Z,21.7
2019-02-28T15:24:24.513Z,21.7
2019-02-28T15:34:23.665Z,21.6
2019-02-28T15:44:25.568Z,21.7
2019-02-28T15:54:25.157Z,21.7
2019-02-28T16:04:23.440Z,21.7
2019-02-28T16:14:20.493Z,21.6
2019-02-28T16:24:19.701Z,21.6
2019-02-28T16:34:18.909Z,21.6
2019-02-28T16:44:18.122Z,21.6
2019-02-28T16:54:19.285Z,21.6
2019-02-28T17:04:17.038Z,21.7
2019-02-28T17:14:15.745Z,21.7
2019-02-28T17:24:14.950Z,21.7
2019-02-28T17:34:14.155Z,21.7
2019-02-28T17:40:43.495Z,21.7
2019-02-28T17:50:43.822Z,21.6
2019-02-28T18:00:41.916Z,21.6
2019-02-28T18:10:41.132Z,21.6
2019-02-28T18:20:40.285Z,21.6
2019-02-28T18:30:42.619Z,21.6
2019-02-28T18:40:38.755Z,21.6
2019-02-28T18:50:38.042Z,21.6
2019-02-28T19:00:37.381Z,21.6
2019-02-28T19:10:36.672Z,21.6
2019-02-28T19:20:35.961Z,21.5
2019-02-28T19:30:35.207Z,21.5
2019-02-28T19:40:34.412Z,21.6
2019-02-28T19:50:33.620Z,21.6
2019-02-28T20:00:32.829Z,21.6
2019-02-28T20:10:32.041Z,21.6
2019-02-28T20:20:31.309Z,21.6
2019-02-28T20:30:30.474Z,21.6
2019-02-28T20:40:29.701Z,21.8
2019-02-28T20:50:28.975Z,21.8
2019-02-28T21:00:28.129Z,21.8
2019-02-28T21:10:21.270Z,21.8
2019-02-28T21:20:20.480Z,21.8
2019-02-28T21:30:19.694Z,21.8
2019-02-28T21:40:18.907Z,21.9
2019-02-28T21:50:18.122Z,21.9
2019-02-28T22:00:17.331Z,21.9
2019-02-28T22:10:16.588Z,22
2019-02-28T22:20:15.934Z,21.9
2019-02-28T22:30:15.168Z,21.9
2019-02-28T22:40:14.456Z,21.9
2019-02-28T22:50:13.748Z,21.9
2019-02-28T23:00:13.086Z,21.8
2019-02-28T23:10:12.238Z,21.8
2019-02-28T23:20:11.443Z,22
2019-02-28T23:30:10.655Z,21.9
2019-02-28T23:40:09.859Z,21.9
2019-02-28T23:50:09.064Z,21.9
